Time;durP1;ratioP1;P1;durP2;ratioP2;P2;SDS_P1;SDS_P2;PMS_P1;PMS_P2;Temp;Humidity;BMP_temperature;BMP_pressure;BME280_temperature;BME280_humidity;BME280_pressure;Samples;Min_cycle;Max_cycle;Signal;HPM_P1;HPM_P2
2022/07/28 00:01:01;;;;;;;33.88;17.90;;;;;;;31.00;43.29;98953.72;5094189;28;20578;-66
2022/07/28 00:03:27;;;;;;;36.22;19.45;;;;;;;31.29;42.71;98951.47;5075708;28;20059;-67
2022/07/28 00:05:53;;;;;;;30.05;19.90;;;;;;;31.65;41.61;98954.19;5058906;28;20040;-66
2022/07/28 00:08:18;;;;;;;40.63;18.67;;;;;;;32.03;41.02;98953.50;5092192;28;20043;-67
2022/07/28 00:10:44;;;;;;;29.52;19.02;;;;;;;32.11;40.31;98952.75;5058893;28;20055;-67
2022/07/28 00:13:10;;;;;;;36.45;19.58;;;;;;;32.00;40.38;98948.66;5093385;28;20149;-66
2022/07/28 00:15:36;;;;;;;32.92;18.90;;;;;;;32.03;40.39;98947.22;5091984;28;20079;-67
2022/07/28 00:18:02;;;;;;;35.88;19.13;;;;;;;32.20;40.37;98964.59;5075498;28;20051;-66
2022/07/28 00:20:29;;;;;;;31.67;18.88;;;;;;;32.29;40.11;98970.97;5075138;28;20523;-66
2022/07/28 00:22:55;;;;;;;30.13;18.35;;;;;;;32.14;40.39;98968.63;5092038;28;20048;-68
2022/07/28 00:25:20;;;;;;;32.35;17.48;;;;;;;32.17;40.32;98972.66;5075321;28;20051;-67
2022/07/28 00:27:47;;;;;;;31.00;18.42;;;;;;;32.33;39.86;98971.97;5075611;28;20040;-69
2022/07/28 00:30:13;;;;;;;32.78;18.08;;;;;;;32.53;39.32;98965.13;5075175;28;20054;-68
2022/07/28 00:32:38;;;;;;;28.75;18.08;;;;;;;32.60;39.17;98976.47;5075191;28;20409;-68
2022/07/28 00:35:04;;;;;;;29.67;16.50;;;;;;;32.53;39.50;98968.69;5091903;28;20050;-69
2022/07/28 00:37:30;;;;;;;31.83;17.48;;;;;;;32.48;39.50;98976.25;5092037;28;20039;-69
2022/07/28 00:39:56;;;;;;;28.15;17.33;;;;;;;32.56;39.27;98972.75;5074781;28;20067;-68
2022/07/28 00:42:21;;;;;;;40.13;19.42;;;;;;;32.61;38.97;98967.09;5092802;28;20032;-69
2022/07/28 00:44:47;;;;;;;42.58;19.85;;;;;;;32.66;38.68;98964.19;5092803;28;20067;-69
2022/07/28 00:47:13;;;;;;;38.08;19.52;;;;;;;32.77;38.72;98954.53;5084786;28;20050;-69
2022/07/28 00:49:39;;;;;;;35.03;19.77;;;;;;;32.60;38.99;98944.28;5073652;28;20048;-68
2022/07/28 00:52:06;;;;;;;44.55;19.77;;;;;;;32.86;38.34;98957.31;5057079;28;20123;-69
2022/07/28 00:54:32;;;;;;;42.10;19.55;;;;;;;32.88;38.29;98963.31;5090676;28;20050;-67
2022/07/28 00:57:00;;;;;;;41.15;20.92;;;;;;;32.89;38.65;98945.69;5041174;28;20110;-68
2022/07/28 00:59:26;;;;;;;41.95;21.05;;;;;;;32.13;39.94;98944.19;5090855;28;20073;-65
2022/07/28 01:01:53;;;;;;;39.67;21.45;;;;;;;32.08;40.49;98956.13;5092349;28;20044;-67
2022/07/28 01:04:19;;;;;;;43.08;21.85;;;;;;;31.72;41.07;98958.13;5074404;28;20404;-73
2022/07/28 01:06:55;;;;;;;48.33;22.75;;;;;;;31.37;41.44;98958.16;5092535;28;20047;-68
2022/07/28 01:09:37;;;;;;;42.15;21.63;;;;;;;30.81;42.69;98955.78;5092405;28;20420;-68
2022/07/28 01:12:27;;;;;;;46.35;21.42;;;;;;;30.96;42.83;98949.97;5092207;28;20527;-69
2022/07/28 01:15:10;;;;;;;35.28;21.42;;;;;;;30.59;43.18;98952.91;5091340;28;20086;-69
2022/07/28 01:17:51;;;;;;;39.13;20.10;;;;;;;30.41;44.26;98946.44;5092196;28;20172;-69
2022/07/28 01:20:22;;;;;;;40.13;20.10;;;;;;;30.15;44.48;98941.69;5057747;28;20060;-69
2022/07/28 01:23:01;;;;;;;33.25;20.02;;;;;;;30.14;44.80;98940.06;5074267;28;20044;-70
2022/07/28 01:25:49;;;;;;;48.17;22.45;;;;;;;29.75;45.22;98943.22;5090932;28;20051;-68
2022/07/28 01:28:33;;;;;;;38.67;21.50;;;;;;;29.91;45.42;98949.25;5090889;28;20062;-68
2022/07/28 01:31:04;;;;;;;28.48;18.88;;;;;;;29.79;45.59;98944.22;5087609;28;20048;-69
2022/07/28 01:33:34;;;;;;;45.22;21.05;;;;;;;29.72;45.80;98943.00;5053900;28;20044;-69
2022/07/28 01:36:06;;;;;;;37.90;21.08;;;;;;;29.60;45.92;98941.50;5087952;28;20130;-70
2022/07/28 01:38:33;;;;;;;37.95;21.23;;;;;;;29.54;46.06;98950.06;5071045;28;20071;-70
2022/07/28 01:41:00;;;;;;;38.03;21.48;;;;;;;29.45;46.02;98946.41;5053436;28;20043;-68
2022/07/28 01:43:28;;;;;;;36.13;21.67;;;;;;;29.43;46.13;98938.47;5072308;28;20397;-69
2022/07/28 01:45:57;;;;;;;34.60;20.42;;;;;;;29.40;45.68;98925.41;5090354;28;20052;-68
2022/07/28 01:48:26;;;;;;;38.55;23.02;;;;;;;29.57;46.07;98936.63;5056895;28;20424;-69
2022/07/28 01:50:53;;;;;;;37.10;20.80;;;;;;;29.56;46.22;98939.66;5073642;28;20048;-69
2022/07/28 01:53:19;;;;;;;37.78;20.77;;;;;;;29.36;46.68;98939.97;5092165;28;20047;-68
2022/07/28 01:55:45;;;;;;;39.30;23.38;;;;;;;29.23;46.65;98941.53;5040505;28;20394;-69
2022/07/28 01:58:16;;;;;;;42.92;22.95;;;;;;;29.47;46.34;98934.06;5089938;28;20093;-68
2022/07/28 02:00:43;;;;;;;31.77;21.85;;;;;;;29.47;46.42;98934.06;5090074;28;20280;-69
2022/07/28 02:03:10;;;;;;;39.80;22.92;;;;;;;29.39;46.42;98922.97;5090558;28;20163;-68
2022/07/28 02:05:37;;;;;;;35.40;24.05;;;;;;;29.53;46.29;98940.25;5073672;28;20044;-68
2022/07/28 02:08:04;;;;;;;37.13;23.15;;;;;;;29.59;45.71;98931.66;5056789;28;20047;-68
2022/07/28 02:10:30;;;;;;;37.75;21.65;;;;;;;29.41;46.12;98929.78;5091646;28;20040;-68
2022/07/28 02:12:58;;;;;;;33.95;21.02;;;;;;;29.49;46.64;98936.50;5073642;28;20048;-68
2022/07/28 02:15:25;;;;;;;47.42;23.35;;;;;;;29.37;46.40;98917.78;5056731;28;20604;-69
2022/07/28 02:17:52;;;;;;;35.33;22.13;;;;;;;29.44;46.59;98936.56;5090586;28;20127;-68
2022/07/28 02:20:18;;;;;;;38.92;21.88;;;;;;;29.41;46.25;98934.44;5056620;28;20047;-68
2022/07/28 02:22:45;;;;;;;35.20;21.60;;;;;;;29.43;46.59;98937.69;5090098;28;20134;-68
2022/07/28 02:25:11;;;;;;;38.58;22.13;;;;;;;29.44;46.34;98922.88;5073524;28;20086;-67
2022/07/28 02:27:46;;;;;;;38.15;22.02;;;;;;;29.46;46.31;98943.34;5091091;28;20048;-68
2022/07/28 02:30:18;;;;;;;37.42;21.08;;;;;;;29.67;46.18;98938.41;5073395;28;20059;-68
2022/07/28 02:32:54;;;;;;;32.83;20.70;;;;;;;29.60;46.02;98936.03;5073432;28;20043;-68
2022/07/28 02:35:33;;;;;;;31.98;20.70;;;;;;;29.64;46.26;98940.94;5089941;28;20035;-68
2022/07/28 02:38:12;;;;;;;37.33;21.25;;;;;;;29.73;46.10;98937.22;5089788;28;20122;-68
2022/07/28 02:40:40;;;;;;;36.10;20.33;;;;;;;29.54;46.51;98941.88;5091157;28;20504;-68
2022/07/28 02:43:10;;;;;;;38.92;20.90;;;;;;;29.65;46.42;98948.03;5072939;28;20123;-68
2022/07/28 02:45:39;;;;;;;30.77;20.88;;;;;;;29.50;46.87;98947.16;5073033;28;20052;-68
2022/07/28 02:48:07;;;;;;;37.67;20.85;;;;;;;29.48;46.88;98943.06;5089804;28;20052;-68
2022/07/28 02:50:33;;;;;;;32.60;21.30;;;;;;;29.28;46.87;98952.41;5056008;28;20036;-68
2022/07/28 02:53:01;;;;;;;37.30;21.75;;;;;;;29.44;46.72;98952.97;5073096;28;20055;-66
2022/07/28 02:55:27;;;;;;;33.90;20.67;;;;;;;29.44;46.62;98952.97;5089693;28;20055;-68
2022/07/28 02:57:55;;;;;;;35.60;21.23;;;;;;;29.38;46.71;98927.59;5091046;28;20044;-67
2022/07/28 03:00:21;;;;;;;38.25;21.05;;;;;;;29.39;46.90;98942.94;5089747;28;20051;-68
2022/07/28 03:02:47;;;;;;;32.95;20.77;;;;;;;29.52;46.37;98947.63;5056309;28;20044;-69
2022/07/28 03:05:14;;;;;;;31.35;19.35;;;;;;;29.67;46.19;98945.81;5056226;28;20075;-67
2022/07/28 03:07:40;;;;;;;32.60;20.40;;;;;;;29.46;46.28;98935.16;5055994;28;20116;-68
2022/07/28 03:10:07;;;;;;;30.20;20.02;;;;;;;29.38;46.25;98943.22;5055864;28;20059;-69
2022/07/28 03:12:32;;;;;;;32.85;20.15;;;;;;;29.41;46.30;98934.44;5076721;28;20044;-68
2022/07/28 03:14:58;;;;;;;42.78;20.83;;;;;;;29.53;46.09;98949.28;5076456;28;20626;-69
2022/07/28 03:17:24;;;;;;;33.08;20.77;;;;;;;29.57;46.23;98947.56;5077083;28;20554;-67
2022/07/28 03:19:49;;;;;;;41.25;21.55;;;;;;;29.59;46.21;98956.31;5043499;28;20124;-69
2022/07/28 03:22:18;;;;;;;33.75;19.33;;;;;;;29.83;46.25;98950.72;5076784;28;20093;-67
2022/07/28 03:24:49;;;;;;;31.33;19.77;;;;;;;29.97;45.61;98959.78;5044516;28;20127;-69
2022/07/28 03:27:25;;;;;;;32.90;20.42;;;;;;;30.04;45.34;98960.25;5093962;28;20036;-68
2022/07/28 03:30:00;;;;;;;41.30;19.65;;;;;;;30.16;45.05;98959.75;5059999;28;20063;-68
2022/07/28 03:32:30;;;;;;;29.55;19.95;;;;;;;29.99;45.39;98959.50;5043735;28;20135;-67
2022/07/28 03:34:56;;;;;;;36.15;19.65;;;;;;;30.10;44.98;98950.00;5094244;28;20416;-68
2022/07/28 03:37:40;;;;;;;36.65;18.98;;;;;;;30.34;44.72;98965.19;5043639;28;20055;-67
2022/07/28 03:40:09;;;;;;;41.03;19.80;;;;;;;30.38;44.67;98962.66;5093398;28;20276;-68
2022/07/28 03:42:36;;;;;;;;;;;;;;;30.64;43.76;98966.53;5094126;28;20584;-68
2022/07/28 03:45:02;;;;;;;33.75;19.85;;;;;;;30.30;44.37;98950.47;5059991;28;20022;-67
2022/07/28 03:47:29;;;;;;;37.45;20.48;;;;;;;30.38;44.55;98962.66;5093644;28;20055;-69
2022/07/28 03:49:54;;;;;;;35.38;20.88;;;;;;;30.47;44.85;98975.38;5043647;28;20043;-67
2022/07/28 03:52:20;;;;;;;38.67;19.63;;;;;;;30.51;44.65;98979.13;5060223;28;20044;-67
2022/07/28 03:54:46;;;;;;;40.97;19.83;;;;;;;30.70;44.28;98981.75;5076870;28;20097;-68
2022/07/28 03:57:11;;;;;;;46.30;20.95;;;;;;;30.81;44.65;98980.47;5060240;28;20036;-68
2022/07/28 03:59:37;;;;;;;45.22;22.13;;;;;;;30.81;44.87;98973.06;5093011;28;20444;-68
2022/07/28 04:02:03;;;;;;;40.58;21.65;;;;;;;30.91;44.77;98983.81;5059197;28;20044;-68
2022/07/28 04:04:29;;;;;;;41.58;22.02;;;;;;;31.02;44.76;98990.72;5093404;28;20093;-67
2022/07/28 04:06:54;;;;;;;35.25;19.77;;;;;;;31.07;43.73;98982.41;5059592;28;20462;-68
2022/07/28 04:09:20;;;;;;;34.65;20.27;;;;;;;31.12;43.91;98990.50;5075718;28;20138;-68
2022/07/28 04:11:46;;;;;;;32.50;19.52;;;;;;;30.79;43.62;98977.22;5092863;28;20051;-69
2022/07/28 04:14:11;;;;;;;30.73;17.92;;;;;;;30.58;43.91;98965.00;5075543;28;20090;-68
2022/07/28 04:16:37;;;;;;;28.77;16.27;;;;;;;30.70;43.02;98981.75;5058752;28;20100;-68
2022/07/28 04:19:03;;;;;;;23.70;16.20;;;;;;;30.50;43.67;98977.50;5092183;28;20516;-67
2022/07/28 04:21:28;;;;;;;26.55;17.10;;;;;;;30.50;44.04;98966.53;5075304;28;20042;-67
2022/07/28 04:23:54;;;;;;;26.55;16.85;;;;;;;30.54;43.68;98985.91;5092247;28;20047;-68
2022/07/28 04:26:20;;;;;;;26.13;16.55;;;;;;;30.52;43.81;98988.16;5058627;28;20638;-68
2022/07/28 04:28:46;;;;;;;24.88;16.05;;;;;;;30.42;43.60;98991.91;5041896;28;20401;-68
2022/07/28 04:31:11;;;;;;;25.42;15.60;;;;;;;30.28;43.70;98977.34;5058760;28;20044;-68
2022/07/28 04:33:38;;;;;;;23.75;15.90;;;;;;;30.32;43.75;98980.31;5093310;28;20043;-67
2022/07/28 04:36:04;;;;;;;27.02;14.80;;;;;;;30.38;43.38;98965.41;5092047;28;20051;-68
2022/07/28 04:38:29;;;;;;;22.40;14.75;;;;;;;30.29;43.24;98980.91;5058733;28;20039;-67
2022/07/28 04:40:56;;;;;;;19.70;14.68;;;;;;;30.28;43.39;98976.53;5058483;28;20043;-67
2022/07/28 04:43:22;;;;;;;20.80;14.15;;;;;;;30.27;43.06;98983.97;5092110;28;20076;-67
2022/07/28 04:45:49;;;;;;;22.33;14.35;;;;;;;30.31;43.25;98984.16;5075100;28;20075;-67
2022/07/28 04:48:16;;;;;;;22.08;14.27;;;;;;;30.41;43.17;98992.19;5075273;28;20044;-71
2022/07/28 04:50:43;;;;;;;24.27;13.35;;;;;;;30.43;42.25;98992.72;5074865;28;20044;-67
2022/07/28 04:53:09;;;;;;;25.77;13.30;;;;;;;30.53;42.01;98993.34;5058443;28;20119;-68
2022/07/28 04:55:37;;;;;;;26.73;13.77;;;;;;;30.43;43.09;98992.72;5058085;28;20174;-68
2022/07/28 04:58:04;;;;;;;21.42;14.20;;;;;;;30.57;43.30;98991.59;5075710;28;20455;-68
2022/07/28 05:00:30;;;;;;;20.33;13.80;;;;;;;30.52;43.15;98985.41;5057909;28;20448;-68
2022/07/28 05:02:57;;;;;;;25.50;13.20;;;;;;;30.58;42.53;98995.16;5041791;28;20044;-68
2022/07/28 05:05:23;;;;;;;22.92;13.68;;;;;;;30.44;42.50;98975.16;5091322;28;20139;-68
2022/07/28 05:07:49;;;;;;;17.85;13.23;;;;;;;30.47;42.28;98999.22;5058002;28;20501;-69
2022/07/28 05:10:14;;;;;;;24.63;14.07;;;;;;;30.52;42.71;98979.94;5041234;28;20036;-68
2022/07/28 05:12:40;;;;;;;20.42;14.13;;;;;;;30.65;42.65;98996.38;5057948;28;20066;-69
2022/07/28 05:15:07;;;;;;;27.48;15.23;;;;;;;30.69;42.91;98999.34;5074470;28;20051;-69
2022/07/28 05:17:33;;;;;;;24.15;14.48;;;;;;;30.54;42.90;98980.41;5092510;28;20047;-73
2022/07/28 05:19:59;;;;;;;23.45;14.35;;;;;;;30.77;42.93;99001.38;5091026;28;20048;-69
2022/07/28 05:22:25;;;;;;;22.65;13.32;;;;;;;30.77;42.50;98979.44;5040803;28;20044;-68
2022/07/28 05:24:50;;;;;;;23.55;13.45;;;;;;;31.02;41.88;99007.19;5090984;28;20039;-68
2022/07/28 05:27:16;;;;;;;21.20;12.00;;;;;;;31.32;41.55;99002.19;5040731;28;20097;-68
2022/07/28 05:29:42;;;;;;;18.52;12.15;;;;;;;31.48;40.83;99007.03;5057676;28;20048;-69
2022/07/28 05:32:08;;;;;;;24.00;13.38;;;;;;;31.63;41.19;99012.16;5057336;28;20036;-69
2022/07/28 05:34:34;;;;;;;18.35;12.40;;;;;;;31.80;40.59;99009.56;5090132;28;20047;-68
2022/07/28 05:37:01;;;;;;;27.40;12.57;;;;;;;31.79;40.47;98991.47;5092268;28;20040;-68
2022/07/28 05:39:31;;;;;;;18.88;11.90;;;;;;;32.15;40.11;99011.44;5090579;28;20051;-68
2022/07/28 05:42:00;;;;;;;;;;;;;;;32.45;39.29;99007.94;5092221;28;20055;-68
2022/07/28 05:44:28;;;;;;;16.60;11.73;;;;;;;32.39;39.54;98998.22;5091886;28;19923;-68
2022/07/28 05:46:54;;;;;;;21.38;11.25;;;;;;;32.65;38.50;99009.34;5073679;28;20420;-68
2022/07/28 05:49:22;;;;;;;24.10;11.38;;;;;;;32.75;38.61;99017.31;5073681;28;20051;-66
2022/07/28 05:51:48;;;;;;;21.58;11.75;;;;;;;32.60;38.80;99024.03;5090767;28;20047;-69
2022/07/28 05:54:13;;;;;;;17.35;9.95;;;;;;;32.39;38.45;99005.66;5057393;28;20048;-68
2022/07/28 05:56:39;;;;;;;21.08;11.43;;;;;;;32.38;38.63;99009.53;5073630;28;20043;-67
2022/07/28 05:59:08;;;;;;;19.30;10.23;;;;;;;32.46;38.60;99014.28;5056995;28;20047;-69
2022/07/28 06:01:36;;;;;;;15.13;11.02;;;;;;;32.75;38.60;99016.50;5090910;28;20460;-69
2022/07/28 06:04:02;;;;;;;14.45;10.18;;;;;;;32.69;37.70;99019.38;5091848;28;20064;-67
2022/07/28 06:06:27;;;;;;;15.77;9.90;;;;;;;32.77;37.60;99006.00;5090324;28;20144;-69
2022/07/28 06:08:53;;;;;;;21.88;9.77;;;;;;;32.83;37.14;99004.72;5056338;28;20046;-68
2022/07/28 06:11:19;;;;;;;17.63;10.02;;;;;;;32.95;36.89;99026.97;5089818;28;20127;-68
2022/07/28 06:13:45;;;;;;;15.00;9.65;;;;;;;33.04;36.78;99019.53;5056464;28;20082;-68
2022/07/28 06:16:11;;;;;;;13.20;9.05;;;;;;;33.25;36.55;99031.56;5089893;28;20083;-68
2022/07/28 06:18:37;;;;;;;20.15;9.98;;;;;;;33.33;36.28;99009.56;5073199;28;20130;-71
2022/07/28 06:21:02;;;;;;;18.20;9.43;;;;;;;33.86;35.07;99021.13;5056616;28;20101;-68
2022/07/28 06:23:29;;;;;;;21.67;9.45;;;;;;;34.23;34.44;99030.69;5091017;28;20521;-68
2022/07/28 06:25:54;;;;;;;13.98;9.15;;;;;;;34.27;34.21;99037.19;5056522;28;20408;-68
2022/07/28 06:28:20;;;;;;;15.13;9.32;;;;;;;34.28;34.51;99041.53;5073314;28;20044;-68
2022/07/28 06:30:47;;;;;;;12.35;9.23;;;;;;;34.47;34.36;99014.47;5039654;28;20139;-68
2022/07/28 06:33:14;;;;;;;14.85;8.65;;;;;;;34.45;34.10;99029.69;5090597;28;20524;-69
2022/07/28 06:35:40;;;;;;;12.95;9.15;;;;;;;34.27;34.28;99031.66;5089382;28;20409;-69
2022/07/28 06:38:06;;;;;;;18.83;10.13;;;;;;;34.27;34.34;99028.91;5056437;28;20048;-70
2022/07/28 06:40:31;;;;;;;20.33;9.80;;;;;;;34.30;34.26;99019.16;5072732;28;20044;-69
2022/07/28 06:42:57;;;;;;;14.88;8.80;;;;;;;34.35;34.29;99027.28;5072876;28;20192;-69
2022/07/28 06:45:23;;;;;;;19.42;8.98;;;;;;;34.26;33.81;99037.50;5055557;28;20126;-69
2022/07/28 06:47:49;;;;;;;12.88;9.00;;;;;;;34.29;34.34;99034.09;5039378;28;20562;-68
2022/07/28 06:50:16;;;;;;;16.02;9.13;;;;;;;34.15;34.42;99015.78;5055923;28;20082;-68
2022/07/28 06:52:41;;;;;;;20.08;9.70;;;;;;;34.21;34.10;99036.53;5072573;28;20043;-68
2022/07/28 06:55:07;;;;;;;12.80;8.57;;;;;;;34.29;34.42;99014.78;5072892;28;20109;-68
2022/07/28 06:57:33;;;;;;;18.67;9.52;;;;;;;34.30;33.84;99033.75;5089563;28;20040;-68
2022/07/28 07:00:02;;;;;;;13.75;9.25;;;;;;;34.29;34.33;99028.59;5038958;28;20424;-68
2022/07/28 07:02:30;;;;;;;18.30;9.05;;;;;;;34.26;33.85;99027.28;5089469;28;20048;-68
2022/07/28 07:04:56;;;;;;;12.73;9.13;;;;;;;34.49;33.56;99028.69;5055906;28;20538;-68
2022/07/28 07:07:22;;;;;;;12.70;9.05;;;;;;;34.73;33.50;99011.59;5055700;28;20067;-68
2022/07/28 07:09:48;;;;;;;17.38;8.63;;;;;;;34.88;33.75;99028.44;5072436;28;20416;-69
2022/07/28 07:12:13;;;;;;;16.15;8.30;;;;;;;35.13;32.52;99022.00;5055565;28;20048;-68
2022/07/28 07:14:39;;;;;;;17.75;9.05;;;;;;;35.52;32.07;99024.34;5072477;28;20039;-69
2022/07/28 07:17:05;;;;;;;15.82;8.88;;;;;;;35.91;31.55;99030.56;5039424;28;20044;-69
2022/07/28 07:19:30;;;;;;;15.48;9.25;;;;;;;36.50;30.84;99038.31;5055589;28;20047;-68
2022/07/28 07:21:56;;;;;;;13.52;8.45;;;;;;;36.97;29.70;99028.50;5089127;28;20040;-68
2022/07/28 07:24:22;;;;;;;24.15;8.70;;;;;;;37.60;29.05;99048.31;5072498;28;20473;-69
2022/07/28 07:26:48;;;;;;;14.88;8.45;;;;;;;38.21;28.04;99035.94;5072069;28;20043;-69
2022/07/28 07:29:13;;;;;;;17.05;8.13;;;;;;;39.15;26.85;99022.97;5088930;28;20153;-69
2022/07/28 07:31:39;;;;;;;15.52;8.20;;;;;;;40.26;25.31;99032.22;5055713;28;20040;-69
2022/07/28 07:34:05;;;;;;;13.70;8.13;;;;;;;40.96;24.00;99014.03;5055582;28;20056;-69
2022/07/28 07:36:31;;;;;;;13.20;8.35;;;;;;;42.55;22.92;99014.22;5088883;28;20037;-69
2022/07/28 07:38:57;;;;;;;15.13;7.53;;;;;;;44.08;20.95;98991.34;5071697;28;20055;-68
2022/07/28 07:41:23;;;;;;;12.10;7.15;;;;;;;45.52;18.38;98994.25;5055308;28;20036;-69
2022/07/28 07:43:48;;;;;;;11.27;6.90;;;;;;;46.05;17.07;98994.06;5055486;28;20051;-69
2022/07/28 07:46:16;;;;;;;9.38;7.13;;;;;;;46.71;16.52;98983.63;5072118;28;20050;-69
2022/07/28 07:48:42;;;;;;;9.23;6.55;;;;;;;47.57;15.36;98980.44;5088784;28;20435;-70
2022/07/28 07:51:08;;;;;;;13.38;6.90;;;;;;;48.89;14.51;98971.31;5090162;28;20085;-68
2022/07/28 07:53:34;;;;;;;14.05;6.28;;;;;;;50.61;12.72;98977.47;5072056;28;20408;-69
2022/07/28 07:55:59;;;;;;;14.43;6.05;;;;;;;51.63;12.39;98967.88;5088885;28;20140;-69
2022/07/28 07:58:25;;;;;;;7.85;5.38;;;;;;;52.67;11.52;98973.59;5075534;28;20036;-68
2022/07/28 08:00:52;;;;;;;9.73;6.30;;;;;;;53.90;10.61;98976.94;5075681;28;20051;-68
2022/07/28 08:03:18;;;;;;;9.38;5.13;;;;;;;53.13;10.71;98961.44;5058963;28;20416;-67
2022/07/28 08:05:44;;;;;;;13.38;5.32;;;;;;;52.05;11.20;98963.03;5075367;28;20052;-69
2022/07/28 08:08:10;;;;;;;6.85;5.75;;;;;;;51.08;11.79;98984.38;5075773;28;20036;-69
2022/07/28 08:10:37;;;;;;;8.82;5.70;;;;;;;50.46;12.70;98960.84;5042085;28;20062;-69
2022/07/28 08:13:05;;;;;;;11.75;5.85;;;;;;;49.92;12.73;98951.16;5075310;28;20036;-69
2022/07/28 08:15:31;;;;;;;13.43;5.75;;;;;;;50.37;12.75;98969.16;5093607;28;20051;-69
2022/07/28 08:17:57;;;;;;;13.32;5.55;;;;;;;49.29;13.45;98951.66;5075557;28;20127;-68
2022/07/28 08:20:23;;;;;;;12.38;5.15;;;;;;;48.31;14.35;98940.03;5058270;28;20138;-70
2022/07/28 08:22:50;;;;;;;10.52;5.32;;;;;;;48.09;14.40;98950.81;5058347;28;20040;-69
2022/07/28 08:25:17;;;;;;;12.48;5.50;;;;;;;46.36;15.92;98948.16;5091756;28;20116;-69
2022/07/28 08:27:43;;;;;;;14.60;6.30;;;;;;;45.03;16.88;98943.03;5092066;28;20102;-69
2022/07/28 08:30:10;;;;;;;9.95;5.93;;;;;;;43.77;18.30;98943.63;5058175;28;20544;-69
2022/07/28 08:32:36;;;;;;;8.55;6.10;;;;;;;42.15;20.46;98920.06;5093017;28;20039;-69
2022/07/28 08:35:01;;;;;;;9.85;6.10;;;;;;;40.75;21.98;98930.09;5091878;28;20412;-69
2022/07/28 08:37:28;;;;;;;10.45;6.95;;;;;;;39.70;23.75;98912.25;5075031;28;20036;-68
2022/07/28 08:39:54;;;;;;;9.05;6.45;;;;;;;38.97;24.36;98903.06;5074377;28;20136;-68
2022/07/28 08:42:30;;;;;;;16.08;7.35;;;;;;;38.98;25.02;98890.81;5074640;28;20039;-68
2022/07/28 08:45:04;;;;;;;11.93;7.05;;;;;;;38.60;26.07;98890.69;5057649;28;20075;-68
2022/07/28 08:47:31;;;;;;;9.90;6.60;;;;;;;37.75;26.79;98901.47;5091251;28;20524;-69
2022/07/28 08:50:00;;;;;;;10.68;7.72;;;;;;;36.68;28.78;98922.69;5074495;28;20048;-68
2022/07/28 08:52:30;;;;;;;12.00;6.82;;;;;;;35.87;30.42;98932.91;5041879;28;20897;-68
2022/07/28 08:54:57;;;;;;;14.93;6.70;;;;;;;35.24;30.43;98942.31;5075171;28;20048;-68
2022/07/28 08:57:33;;;;;;;12.10;7.07;;;;;;;34.45;32.72;98958.81;5092212;28;20047;-68
2022/07/28 09:00:00;;;;;;;33.55;6.30;;;;;;;34.23;30.75;98923.16;5092328;28;20060;-68
2022/07/28 09:02:27;;;;;;;58.25;7.05;;;;;;;33.40;29.15;98924.56;5093730;28;20043;-68
2022/07/28 09:04:58;;;;;;;59.25;5.60;;;;;;;33.06;30.75;98923.72;5092647;28;20040;-68
2022/07/28 09:07:24;;;;;;;49.15;5.82;;;;;;;32.03;35.08;98936.25;5075729;28;20048;-68
2022/07/28 09:09:50;;;;;;;34.60;5.95;;;;;;;31.50;36.44;98927.91;5076061;28;20040;-69
2022/07/28 09:12:16;;;;;;;23.73;5.07;;;;;;;31.36;34.41;98934.56;5059045;28;20459;-68
2022/07/28 09:14:42;;;;;;;17.15;4.30;;;;;;;31.37;34.44;98920.53;5075651;28;20109;-68
2022/07/28 09:17:07;;;;;;;16.45;4.28;;;;;;;31.73;32.51;98928.72;5058105;28;20473;-69
2022/07/28 09:19:33;;;;;;;5.13;3.47;;;;;;;31.92;31.83;98916.44;5057563;28;20044;-68
2022/07/28 09:21:59;;;;;;;10.60;4.03;;;;;;;33.10;29.08;98941.19;5090871;28;20051;-69
2022/07/28 09:24:33;;;;;;;7.10;3.53;;;;;;;34.75;26.70;98927.34;5057424;28;20040;-68
2022/07/28 09:27:05;;;;;;;9.02;3.90;;;;;;;36.88;25.79;98932.84;5090823;28;20071;-68
2022/07/28 09:29:31;;;;;;;11.20;3.78;;;;;;;39.07;22.83;98912.84;5090761;28;20508;-68
2022/07/28 09:31:57;;;;;;;14.25;3.42;;;;;;;41.73;19.29;98931.53;5091387;28;20079;-69
2022/07/28 09:34:23;;;;;;;10.50;3.75;;;;;;;43.95;16.38;98917.31;5092017;28;20481;-69
2022/07/28 09:36:49;;;;;;;8.02;3.53;;;;;;;46.11;14.52;98910.97;5040509;28;20509;-70
2022/07/28 09:39:32;;;;;;;5.88;3.00;;;;;;;48.71;12.93;98905.16;5091237;28;20063;-69
2022/07/28 09:41:58;;;;;;;7.53;2.70;;;;;;;50.48;11.02;98895.38;5090744;28;20397;-69
2022/07/28 09:44:25;;;;;;;5.18;2.72;;;;;;;52.40;9.81;98901.56;5073978;28;20127;-69
2022/07/28 09:46:51;;;;;;;4.30;2.67;;;;;;;54.05;8.79;98902.00;5091856;28;20415;-70
2022/07/28 09:49:17;;;;;;;5.78;2.42;;;;;;;55.50;7.43;98903.03;5090928;28;20052;-69
2022/07/28 09:51:59;;;;;;;7.25;2.50;;;;;;;56.49;6.68;98899.06;5056788;28;20050;-70
2022/07/28 09:54:25;;;;;;;6.45;2.85;;;;;;;57.21;6.43;98901.38;5057231;28;20508;-69
2022/07/28 09:56:51;;;;;;;5.53;2.60;;;;;;;58.29;5.78;98901.47;5056960;28;20071;-70
2022/07/28 09:59:17;;;;;;;2.80;2.03;;;;;;;59.07;5.12;98902.06;5073317;28;20051;-68
2022/07/28 10:01:57;;;;;;;3.53;2.10;;;;;;;60.15;4.81;98892.69;5090040;28;20460;-70
2022/07/28 10:04:40;;;;;;;10.80;2.38;;;;;;;60.76;4.25;98885.22;5091367;28;20043;-70
2022/07/28 10:07:15;;;;;;;5.70;2.30;;;;;;;60.98;4.48;98867.31;5056697;28;20043;-70
2022/07/28 10:09:42;;;;;;;5.88;2.60;;;;;;;61.29;4.41;98887.22;5090315;28;20044;-69
2022/07/28 10:12:16;;;;;;;6.43;2.30;;;;;;;61.33;4.08;98887.78;5073035;28;20079;-70
2022/07/28 10:14:41;;;;;;;4.57;1.90;;;;;;;61.80;4.50;98873.19;5090186;28;20047;-69
2022/07/28 10:17:09;;;;;;;4.47;2.30;;;;;;;61.35;4.78;98879.41;5073190;28;20515;-70
2022/07/28 10:19:35;;;;;;;4.73;2.23;;;;;;;61.93;4.39;98878.41;5089533;28;20066;-71
2022/07/28 10:22:09;;;;;;;6.53;2.17;;;;;;;61.30;4.60;98863.72;5089828;28;20493;-70
2022/07/28 10:24:36;;;;;;;8.50;2.25;;;;;;;58.65;5.92;98853.09;5089936;28;20047;-70
2022/07/28 10:27:03;;;;;;;6.80;2.67;;;;;;;55.00;7.87;98866.69;5073070;28;20122;-69
2022/07/28 10:29:30;;;;;;;8.45;2.80;;;;;;;51.85;10.39;98852.72;5072900;28;20127;-69
2022/07/28 10:32:04;;;;;;;9.07;2.97;;;;;;;49.23;12.40;98852.59;5073647;28;20039;-69
2022/07/28 10:34:37;;;;;;;8.07;3.10;;;;;;;47.02;14.62;98856.84;5073412;28;20127;-69
2022/07/28 10:37:03;;;;;;;6.40;3.25;;;;;;;45.56;15.89;98865.16;5089667;28;20513;-68
2022/07/28 10:39:40;;;;;;;11.05;3.45;;;;;;;44.27;17.24;98875.41;5089768;28;20401;-71
2022/07/28 10:42:10;;;;;;;10.27;3.65;;;;;;;42.64;19.68;98828.34;5090877;28;20050;-69
2022/07/28 10:44:37;;;;;;;7.00;5.32;;;;;;;40.74;22.56;98885.91;5089608;28;20046;-72
2022/07/28 10:47:08;;;;;;;24.10;6.40;;;;;;;38.97;47.46;98907.81;5089827;28;20032;-69
2022/07/28 10:49:34;;;;;;;58.05;9.27;;;;;;;33.37;62.34;98902.34;5089747;28;20113;-70
2022/07/28 10:52:00;;;;;;;27.05;7.07;;;;;;;29.61;68.09;98910.25;5072764;28;20124;-69
2022/07/28 10:54:28;;;;;;;27.10;8.93;;;;;;;28.23;98.32;98947.38;5072878;28;20071;-69
2022/07/28 10:56:56;;;;;;;8.18;5.85;;;;;;;26.67;84.01;98955.78;5073090;28;20035;-70
2022/07/28 10:59:49;;;;;;;10.57;8.10;;;;;;;25.79;81.37;98981.75;5072849;28;20047;-69
2022/07/28 11:02:41;;;;;;;33.58;7.70;;;;;;;25.19;79.64;98996.03;5090073;28;20148;-69
2022/07/28 11:05:39;;;;;;;11.77;6.38;;;;;;;24.62;77.68;98987.09;5086718;28;20056;-70
2022/07/28 11:08:09;;;;;;;12.43;8.88;;;;;;;24.47;71.56;99004.13;5089608;28;20040;-69
2022/07/28 11:11:01;;;;;;;88.77;8.33;;;;;;;24.44;72.52;99009.25;5072759;28;20104;-70
2022/07/28 11:13:34;;;;;;;37.85;8.20;;;;;;;24.35;78.93;99010.84;5055722;28;20664;-70
2022/07/28 11:16:13;;;;;;;13.88;8.30;;;;;;;24.30;77.11;98970.91;5039562;28;20071;-70
2022/07/28 11:19:07;;;;;;;12.20;10.57;;;;;;;24.79;76.43;98977.72;5055930;28;20135;-70
2022/07/28 11:21:34;;;;;;;40.95;10.65;;;;;;;24.95;77.39;98973.16;5056317;28;20048;-69
2022/07/28 11:24:00;;;;;;;19.88;9.63;;;;;;;24.48;73.31;99018.50;5089626;28;20067;-68
2022/07/28 11:26:33;;;;;;;22.08;8.80;;;;;;;24.72;74.32;99025.19;5089425;28;20043;-68
2022/07/28 11:28:59;;;;;;;43.83;11.90;;;;;;;24.46;80.98;99015.25;5073194;28;20032;-69